sensor_id;sensor_type;location;lat;lon;timestamp;P1;durP1;ratioP1;P2;durP2;ratioP2
15261;SDS011;7733;51.554;13.590;2022-07-29T00:01:21;2.27;;;1.50;;
15261;SDS011;7733;51.554;13.590;2022-07-29T00:03:47;2.30;;;1.30;;
15261;SDS011;7733;51.554;13.590;2022-07-29T00:06:13;2.30;;;1.20;;
15261;SDS011;7733;51.554;13.590;2022-07-29T00:08:40;2.90;;;1.20;;
15261;SDS011;7733;51.554;13.590;2022-07-29T00:11:05;3.60;;;1.80;;
15261;SDS011;7733;51.554;13.590;2022-07-29T00:13:31;2.33;;;1.30;;
15261;SDS011;7733;51.554;13.590;2022-07-29T00:15:57;3.67;;;1.40;;
15261;SDS011;7733;51.554;13.590;2022-07-29T00:18:22;3.00;;;1.47;;
15261;SDS011;7733;51.554;13.590;2022-07-29T00:20:48;1.57;;;1.20;;
15261;SDS011;7733;51.554;13.590;2022-07-29T00:23:14;1.77;;;1.20;;
15261;SDS011;7733;51.554;13.590;2022-07-29T00:25:39;2.87;;;1.30;;
15261;SDS011;7733;51.554;13.590;2022-07-29T00:28:05;1.93;;;1.33;;
15261;SDS011;7733;51.554;13.590;2022-07-29T00:30:31;3.83;;;1.50;;
15261;SDS011;7733;51.554;13.590;2022-07-29T00:32:56;2.63;;;1.60;;
15261;SDS011;7733;51.554;13.590;2022-07-29T00:35:22;5.07;;;1.70;;
15261;SDS011;7733;51.554;13.590;2022-07-29T00:38:07;2.20;;;1.10;;
15261;SDS011;7733;51.554;13.590;2022-07-29T00:40:32;2.20;;;1.60;;
15261;SDS011;7733;51.554;13.590;2022-07-29T00:42:59;1.27;;;1.17;;
15261;SDS011;7733;51.554;13.590;2022-07-29T00:45:24;3.03;;;1.40;;
15261;SDS011;7733;51.554;13.590;2022-07-29T00:47:50;1.50;;;1.40;;
15261;SDS011;7733;51.554;13.590;2022-07-29T00:50:16;1.33;;;1.23;;
15261;SDS011;7733;51.554;13.590;2022-07-29T00:52:42;4.30;;;1.50;;
15261;SDS011;7733;51.554;13.590;2022-07-29T00:55:09;3.20;;;1.80;;
15261;SDS011;7733;51.554;13.590;2022-07-29T00:57:38;1.77;;;1.30;;
15261;SDS011;7733;51.554;13.590;2022-07-29T01:00:07;3.77;;;1.70;;
15261;SDS011;7733;51.554;13.590;2022-07-29T01:02:37;1.90;;;1.30;;
15261;SDS011;7733;51.554;13.590;2022-07-29T01:05:03;3.97;;;1.60;;
15261;SDS011;7733;51.554;13.590;2022-07-29T01:07:31;3.27;;;1.93;;
15261;SDS011;7733;51.554;13.590;2022-07-29T01:10:06;1.90;;;1.63;;
15261;SDS011;7733;51.554;13.590;2022-07-29T01:12:35;3.23;;;1.80;;
15261;SDS011;7733;51.554;13.590;2022-07-29T01:15:03;3.60;;;1.40;;
15261;SDS011;7733;51.554;13.590;2022-07-29T01:20:13;3.00;;;1.80;;
15261;SDS011;7733;51.554;13.590;2022-07-29T01:22:53;2.90;;;1.43;;
15261;SDS011;7733;51.554;13.590;2022-07-29T01:28:57;3.03;;;1.43;;
15261;SDS011;7733;51.554;13.590;2022-07-29T01:31:56;4.20;;;1.87;;
15261;SDS011;7733;51.554;13.590;2022-07-29T01:35:02;2.73;;;1.40;;
15261;SDS011;7733;51.554;13.590;2022-07-29T01:40:49;1.87;;;1.33;;
15261;SDS011;7733;51.554;13.590;2022-07-29T01:43:27;2.17;;;1.33;;
15261;SDS011;7733;51.554;13.590;2022-07-29T01:46:09;3.17;;;1.40;;
15261;SDS011;7733;51.554;13.590;2022-07-29T01:48:46;2.37;;;1.40;;
15261;SDS011;7733;51.554;13.590;2022-07-29T01:51:18;1.60;;;1.50;;
15261;SDS011;7733;51.554;13.590;2022-07-29T01:54:02;1.83;;;1.73;;
15261;SDS011;7733;51.554;13.590;2022-07-29T01:56:39;6.07;;;1.80;;
15261;SDS011;7733;51.554;13.590;2022-07-29T01:59:08;2.27;;;1.43;;
15261;SDS011;7733;51.554;13.590;2022-07-29T02:01:36;1.83;;;1.50;;
15261;SDS011;7733;51.554;13.590;2022-07-29T02:04:06;5.30;;;1.73;;
15261;SDS011;7733;51.554;13.590;2022-07-29T02:06:37;2.37;;;1.57;;
15261;SDS011;7733;51.554;13.590;2022-07-29T02:09:05;2.40;;;1.60;;
15261;SDS011;7733;51.554;13.590;2022-07-29T02:11:35;2.13;;;1.40;;
15261;SDS011;7733;51.554;13.590;2022-07-29T02:14:02;1.83;;;1.53;;
15261;SDS011;7733;51.554;13.590;2022-07-29T02:16:31;1.70;;;1.53;;
15261;SDS011;7733;51.554;13.590;2022-07-29T02:19:00;2.60;;;1.60;;
15261;SDS011;7733;51.554;13.590;2022-07-29T02:21:28;1.57;;;1.47;;
15261;SDS011;7733;51.554;13.590;2022-07-29T02:23:59;3.33;;;1.63;;
15261;SDS011;7733;51.554;13.590;2022-07-29T02:26:27;1.47;;;1.30;;
15261;SDS011;7733;51.554;13.590;2022-07-29T02:28:58;3.23;;;1.40;;
15261;SDS011;7733;51.554;13.590;2022-07-29T02:31:28;2.03;;;1.50;;
15261;SDS011;7733;51.554;13.590;2022-07-29T02:33:58;2.23;;;1.57;;
15261;SDS011;7733;51.554;13.590;2022-07-29T02:36:28;1.60;;;1.50;;
15261;SDS011;7733;51.554;13.590;2022-07-29T02:38:56;1.50;;;1.40;;
15261;SDS011;7733;51.554;13.590;2022-07-29T02:41:42;3.77;;;1.40;;
15261;SDS011;7733;51.554;13.590;2022-07-29T02:44:14;2.30;;;1.30;;
15261;SDS011;7733;51.554;13.590;2022-07-29T02:46:58;2.33;;;1.70;;
15261;SDS011;7733;51.554;13.590;2022-07-29T02:49:35;2.10;;;1.40;;
15261;SDS011;7733;51.554;13.590;2022-07-29T02:52:12;1.90;;;1.60;;
15261;SDS011;7733;51.554;13.590;2022-07-29T02:54:55;2.87;;;1.83;;
15261;SDS011;7733;51.554;13.590;2022-07-29T02:57:43;3.10;;;1.67;;
15261;SDS011;7733;51.554;13.590;2022-07-29T03:00:14;4.13;;;1.67;;
15261;SDS011;7733;51.554;13.590;2022-07-29T03:02:42;2.67;;;1.43;;
15261;SDS011;7733;51.554;13.590;2022-07-29T03:05:13;1.50;;;1.27;;
15261;SDS011;7733;51.554;13.590;2022-07-29T03:07:45;4.63;;;1.50;;
15261;SDS011;7733;51.554;13.590;2022-07-29T03:10:14;2.80;;;1.60;;
15261;SDS011;7733;51.554;13.590;2022-07-29T03:12:40;2.03;;;1.50;;
15261;SDS011;7733;51.554;13.590;2022-07-29T03:15:08;2.23;;;1.70;;
15261;SDS011;7733;51.554;13.590;2022-07-29T03:17:35;1.90;;;1.57;;
15261;SDS011;7733;51.554;13.590;2022-07-29T03:20:02;2.60;;;1.50;;
15261;SDS011;7733;51.554;13.590;2022-07-29T03:22:29;2.43;;;1.50;;
15261;SDS011;7733;51.554;13.590;2022-07-29T03:24:55;3.43;;;1.47;;
15261;SDS011;7733;51.554;13.590;2022-07-29T03:27:21;3.60;;;1.60;;
15261;SDS011;7733;51.554;13.590;2022-07-29T03:29:46;2.83;;;1.93;;
15261;SDS011;7733;51.554;13.590;2022-07-29T03:32:12;2.10;;;1.60;;
15261;SDS011;7733;51.554;13.590;2022-07-29T03:34:38;2.23;;;1.70;;
15261;SDS011;7733;51.554;13.590;2022-07-29T03:37:04;7.73;;;1.90;;
15261;SDS011;7733;51.554;13.590;2022-07-29T03:39:33;2.00;;;1.70;;
15261;SDS011;7733;51.554;13.590;2022-07-29T03:42:05;4.17;;;1.90;;
15261;SDS011;7733;51.554;13.590;2022-07-29T03:44:35;3.53;;;1.53;;
15261;SDS011;7733;51.554;13.590;2022-07-29T03:47:02;3.87;;;1.90;;
15261;SDS011;7733;51.554;13.590;2022-07-29T03:49:33;2.50;;;1.57;;
15261;SDS011;7733;51.554;13.590;2022-07-29T03:52:03;2.30;;;1.60;;
15261;SDS011;7733;51.554;13.590;2022-07-29T03:54:29;4.13;;;2.07;;
15261;SDS011;7733;51.554;13.590;2022-07-29T03:56:55;2.87;;;1.80;;
15261;SDS011;7733;51.554;13.590;2022-07-29T03:59:26;3.00;;;1.70;;
15261;SDS011;7733;51.554;13.590;2022-07-29T04:01:52;2.47;;;1.70;;
15261;SDS011;7733;51.554;13.590;2022-07-29T04:04:21;2.20;;;1.40;;
15261;SDS011;7733;51.554;13.590;2022-07-29T04:06:47;3.13;;;1.80;;
15261;SDS011;7733;51.554;13.590;2022-07-29T04:09:13;4.30;;;1.60;;
15261;SDS011;7733;51.554;13.590;2022-07-29T04:11:39;4.23;;;2.10;;
15261;SDS011;7733;51.554;13.590;2022-07-29T04:14:06;3.47;;;1.80;;
15261;SDS011;7733;51.554;13.590;2022-07-29T04:16:32;2.70;;;1.90;;
15261;SDS011;7733;51.554;13.590;2022-07-29T04:18:58;3.33;;;1.77;;
15261;SDS011;7733;51.554;13.590;2022-07-29T04:21:24;10.00;;;2.33;;
15261;SDS011;7733;51.554;13.590;2022-07-29T04:23:50;2.73;;;2.00;;
15261;SDS011;7733;51.554;13.590;2022-07-29T04:26:16;5.47;;;2.30;;
15261;SDS011;7733;51.554;13.590;2022-07-29T04:28:43;4.43;;;2.30;;
15261;SDS011;7733;51.554;13.590;2022-07-29T04:31:09;4.00;;;2.13;;
15261;SDS011;7733;51.554;13.590;2022-07-29T04:33:36;5.13;;;2.30;;
15261;SDS011;7733;51.554;13.590;2022-07-29T04:36:02;5.77;;;2.07;;
15261;SDS011;7733;51.554;13.590;2022-07-29T04:38:28;4.10;;;2.20;;
15261;SDS011;7733;51.554;13.590;2022-07-29T04:40:54;2.77;;;1.80;;
15261;SDS011;7733;51.554;13.590;2022-07-29T04:43:20;7.17;;;2.10;;
15261;SDS011;7733;51.554;13.590;2022-07-29T04:45:45;2.60;;;2.03;;
15261;SDS011;7733;51.554;13.590;2022-07-29T04:48:11;4.53;;;1.90;;
15261;SDS011;7733;51.554;13.590;2022-07-29T04:50:39;4.47;;;2.17;;
15261;SDS011;7733;51.554;13.590;2022-07-29T04:53:06;4.10;;;2.10;;
15261;SDS011;7733;51.554;13.590;2022-07-29T04:55:32;2.87;;;2.03;;
15261;SDS011;7733;51.554;13.590;2022-07-29T04:57:58;4.50;;;2.00;;
15261;SDS011;7733;51.554;13.590;2022-07-29T05:00:23;5.50;;;2.20;;
15261;SDS011;7733;51.554;13.590;2022-07-29T05:02:49;4.57;;;1.80;;
15261;SDS011;7733;51.554;13.590;2022-07-29T05:05:15;3.20;;;2.00;;
15261;SDS011;7733;51.554;13.590;2022-07-29T05:07:41;4.67;;;1.73;;
15261;SDS011;7733;51.554;13.590;2022-07-29T05:10:07;5.23;;;1.90;;
15261;SDS011;7733;51.554;13.590;2022-07-29T05:12:34;4.63;;;2.10;;
15261;SDS011;7733;51.554;13.590;2022-07-29T05:15:00;2.83;;;1.70;;
15261;SDS011;7733;51.554;13.590;2022-07-29T05:17:26;2.77;;;1.80;;
15261;SDS011;7733;51.554;13.590;2022-07-29T05:19:51;5.83;;;2.10;;
15261;SDS011;7733;51.554;13.590;2022-07-29T05:22:20;6.83;;;1.90;;
15261;SDS011;7733;51.554;13.590;2022-07-29T05:24:46;4.60;;;2.07;;
15261;SDS011;7733;51.554;13.590;2022-07-29T05:27:12;4.47;;;2.03;;
15261;SDS011;7733;51.554;13.590;2022-07-29T05:29:38;2.00;;;1.80;;
15261;SDS011;7733;51.554;13.590;2022-07-29T05:32:04;2.37;;;1.93;;
15261;SDS011;7733;51.554;13.590;2022-07-29T05:34:30;3.90;;;2.00;;
15261;SDS011;7733;51.554;13.590;2022-07-29T05:36:56;3.43;;;1.97;;
15261;SDS011;7733;51.554;13.590;2022-07-29T05:39:23;4.80;;;2.00;;
15261;SDS011;7733;51.554;13.590;2022-07-29T05:41:48;2.80;;;1.83;;
15261;SDS011;7733;51.554;13.590;2022-07-29T05:44:14;4.37;;;2.03;;
15261;SDS011;7733;51.554;13.590;2022-07-29T05:46:40;5.83;;;2.10;;
15261;SDS011;7733;51.554;13.590;2022-07-29T05:49:06;6.47;;;2.10;;
15261;SDS011;7733;51.554;13.590;2022-07-29T05:51:32;6.03;;;2.20;;
15261;SDS011;7733;51.554;13.590;2022-07-29T05:53:58;5.83;;;2.00;;
15261;SDS011;7733;51.554;13.590;2022-07-29T05:56:24;4.97;;;2.07;;
15261;SDS011;7733;51.554;13.590;2022-07-29T05:58:50;3.13;;;2.13;;
15261;SDS011;7733;51.554;13.590;2022-07-29T06:01:16;4.00;;;2.30;;
15261;SDS011;7733;51.554;13.590;2022-07-29T06:03:42;6.00;;;2.10;;
15261;SDS011;7733;51.554;13.590;2022-07-29T06:06:08;1.97;;;1.87;;
15261;SDS011;7733;51.554;13.590;2022-07-29T06:08:34;3.60;;;2.00;;
15261;SDS011;7733;51.554;13.590;2022-07-29T06:11:01;4.47;;;2.03;;
15261;SDS011;7733;51.554;13.590;2022-07-29T06:13:28;4.97;;;2.10;;
15261;SDS011;7733;51.554;13.590;2022-07-29T06:15:54;3.80;;;1.93;;
15261;SDS011;7733;51.554;13.590;2022-07-29T06:18:19;5.97;;;2.13;;
15261;SDS011;7733;51.554;13.590;2022-07-29T06:20:48;5.30;;;1.80;;
15261;SDS011;7733;51.554;13.590;2022-07-29T06:23:18;4.93;;;2.10;;
15261;SDS011;7733;51.554;13.590;2022-07-29T06:25:45;2.80;;;1.90;;
15261;SDS011;7733;51.554;13.590;2022-07-29T06:28:11;5.43;;;2.10;;
15261;SDS011;7733;51.554;13.590;2022-07-29T06:30:37;4.57;;;1.80;;
15261;SDS011;7733;51.554;13.590;2022-07-29T06:33:03;4.80;;;2.00;;
15261;SDS011;7733;51.554;13.590;2022-07-29T06:35:29;2.07;;;1.87;;
15261;SDS011;7733;51.554;13.590;2022-07-29T06:37:55;2.63;;;2.00;;
15261;SDS011;7733;51.554;13.590;2022-07-29T06:40:20;4.50;;;1.77;;
15261;SDS011;7733;51.554;13.590;2022-07-29T06:43:05;3.70;;;1.90;;
15261;SDS011;7733;51.554;13.590;2022-07-29T06:45:33;3.63;;;1.97;;
15261;SDS011;7733;51.554;13.590;2022-07-29T06:47:59;3.77;;;1.97;;
15261;SDS011;7733;51.554;13.590;2022-07-29T06:50:25;2.77;;;1.77;;
15261;SDS011;7733;51.554;13.590;2022-07-29T06:52:51;4.67;;;2.03;;
15261;SDS011;7733;51.554;13.590;2022-07-29T06:55:17;3.63;;;1.80;;
15261;SDS011;7733;51.554;13.590;2022-07-29T06:57:44;2.40;;;1.90;;
15261;SDS011;7733;51.554;13.590;2022-07-29T07:00:11;4.73;;;2.10;;
15261;SDS011;7733;51.554;13.590;2022-07-29T07:02:37;2.33;;;1.73;;
15261;SDS011;7733;51.554;13.590;2022-07-29T07:05:03;4.27;;;1.93;;
15261;SDS011;7733;51.554;13.590;2022-07-29T07:07:30;3.17;;;1.80;;
15261;SDS011;7733;51.554;13.590;2022-07-29T07:09:56;5.13;;;2.20;;
15261;SDS011;7733;51.554;13.590;2022-07-29T07:12:22;2.30;;;2.10;;
15261;SDS011;7733;51.554;13.590;2022-07-29T07:14:47;2.87;;;1.67;;
15261;SDS011;7733;51.554;13.590;2022-07-29T07:17:13;5.47;;;2.20;;
15261;SDS011;7733;51.554;13.590;2022-07-29T07:19:38;3.67;;;1.77;;
15261;SDS011;7733;51.554;13.590;2022-07-29T07:22:04;2.20;;;2.00;;
15261;SDS011;7733;51.554;13.590;2022-07-29T07:24:30;2.83;;;1.60;;
15261;SDS011;7733;51.554;13.590;2022-07-29T07:26:55;3.67;;;1.87;;
15261;SDS011;7733;51.554;13.590;2022-07-29T07:29:21;4.87;;;1.93;;
15261;SDS011;7733;51.554;13.590;2022-07-29T07:31:47;5.67;;;2.10;;
15261;SDS011;7733;51.554;13.590;2022-07-29T07:34:12;4.63;;;2.10;;
15261;SDS011;7733;51.554;13.590;2022-07-29T07:36:38;5.63;;;2.00;;
15261;SDS011;7733;51.554;13.590;2022-07-29T07:39:04;3.77;;;2.30;;
15261;SDS011;7733;51.554;13.590;2022-07-29T07:41:30;4.57;;;1.90;;
15261;SDS011;7733;51.554;13.590;2022-07-29T07:43:55;2.13;;;1.90;;
15261;SDS011;7733;51.554;13.590;2022-07-29T07:46:21;4.67;;;2.07;;
15261;SDS011;7733;51.554;13.590;2022-07-29T07:48:47;4.43;;;1.90;;
15261;SDS011;7733;51.554;13.590;2022-07-29T07:51:12;8.00;;;2.07;;
15261;SDS011;7733;51.554;13.590;2022-07-29T07:53:38;4.27;;;2.13;;
15261;SDS011;7733;51.554;13.590;2022-07-29T07:56:04;3.70;;;1.87;;
15261;SDS011;7733;51.554;13.590;2022-07-29T07:58:31;4.07;;;2.23;;
15261;SDS011;7733;51.554;13.590;2022-07-29T08:00:57;6.30;;;2.40;;
15261;SDS011;7733;51.554;13.590;2022-07-29T08:03:23;2.93;;;2.17;;
15261;SDS011;7733;51.554;13.590;2022-07-29T08:05:48;2.60;;;2.10;;
15261;SDS011;7733;51.554;13.590;2022-07-29T08:08:16;2.83;;;1.73;;
15261;SDS011;7733;51.554;13.590;2022-07-29T08:10:42;4.37;;;2.03;;
15261;SDS011;7733;51.554;13.590;2022-07-29T08:13:17;3.13;;;1.97;;
15261;SDS011;7733;51.554;13.590;2022-07-29T08:15:45;3.03;;;1.97;;
15261;SDS011;7733;51.554;13.590;2022-07-29T08:18:11;3.50;;;2.00;;
15261;SDS011;7733;51.554;13.590;2022-07-29T08:20:38;6.10;;;2.27;;
15261;SDS011;7733;51.554;13.590;2022-07-29T08:23:05;3.20;;;1.77;;
15261;SDS011;7733;51.554;13.590;2022-07-29T08:25:33;3.77;;;2.10;;
15261;SDS011;7733;51.554;13.590;2022-07-29T08:28:01;3.60;;;1.90;;
15261;SDS011;7733;51.554;13.590;2022-07-29T08:30:27;4.07;;;2.10;;
15261;SDS011;7733;51.554;13.590;2022-07-29T08:32:53;3.63;;;2.13;;
15261;SDS011;7733;51.554;13.590;2022-07-29T08:35:19;4.03;;;2.00;;
15261;SDS011;7733;51.554;13.590;2022-07-29T08:37:46;2.60;;;2.10;;
15261;SDS011;7733;51.554;13.590;2022-07-29T08:40:12;3.67;;;2.43;;
15261;SDS011;7733;51.554;13.590;2022-07-29T08:42:39;5.27;;;1.93;;
15261;SDS011;7733;51.554;13.590;2022-07-29T08:45:05;2.53;;;2.10;;
15261;SDS011;7733;51.554;13.590;2022-07-29T08:47:32;4.10;;;2.30;;
15261;SDS011;7733;51.554;13.590;2022-07-29T08:49:58;2.83;;;2.00;;
15261;SDS011;7733;51.554;13.590;2022-07-29T08:52:25;4.97;;;2.10;;
15261;SDS011;7733;51.554;13.590;2022-07-29T08:54:51;8.00;;;2.40;;
15261;SDS011;7733;51.554;13.590;2022-07-29T08:57:18;5.13;;;2.00;;
15261;SDS011;7733;51.554;13.590;2022-07-29T08:59:46;4.37;;;2.20;;
15261;SDS011;7733;51.554;13.590;2022-07-29T09:02:23;6.37;;;2.30;;
15261;SDS011;7733;51.554;13.590;2022-07-29T09:04:54;3.47;;;2.10;;
15261;SDS011;7733;51.554;13.590;2022-07-29T09:07:25;6.50;;;2.37;;
15261;SDS011;7733;51.554;13.590;2022-07-29T09:09:50;6.13;;;2.20;;
15261;SDS011;7733;51.554;13.590;2022-07-29T09:12:16;4.00;;;2.40;;
15261;SDS011;7733;51.554;13.590;2022-07-29T09:14:42;3.43;;;2.00;;
15261;SDS011;7733;51.554;13.590;2022-07-29T09:17:07;2.33;;;2.10;;
15261;SDS011;7733;51.554;13.590;2022-07-29T09:19:34;5.30;;;2.17;;
15261;SDS011;7733;51.554;13.590;2022-07-29T09:22:03;4.87;;;2.00;;
15261;SDS011;7733;51.554;13.590;2022-07-29T09:24:38;6.33;;;2.07;;
15261;SDS011;7733;51.554;13.590;2022-07-29T09:27:18;5.10;;;2.20;;
15261;SDS011;7733;51.554;13.590;2022-07-29T09:30:00;5.60;;;2.03;;
15261;SDS011;7733;51.554;13.590;2022-07-29T09:32:32;5.07;;;2.20;;
15261;SDS011;7733;51.554;13.590;2022-07-29T09:35:22;5.53;;;1.80;;
15261;SDS011;7733;51.554;13.590;2022-07-29T09:37:50;4.97;;;2.40;;
15261;SDS011;7733;51.554;13.590;2022-07-29T09:40:27;3.53;;;2.23;;
15261;SDS011;7733;51.554;13.590;2022-07-29T09:42:53;3.70;;;2.20;;
15261;SDS011;7733;51.554;13.590;2022-07-29T09:45:26;3.83;;;2.03;;
15261;SDS011;7733;51.554;13.590;2022-07-29T09:47:56;4.50;;;2.43;;
15261;SDS011;7733;51.554;13.590;2022-07-29T09:53:33;3.97;;;2.20;;
15261;SDS011;7733;51.554;13.590;2022-07-29T09:56:02;2.60;;;2.00;;
15261;SDS011;7733;51.554;13.590;2022-07-29T09:58:29;7.57;;;2.30;;
15261;SDS011;7733;51.554;13.590;2022-07-29T10:00:55;4.27;;;1.87;;
15261;SDS011;7733;51.554;13.590;2022-07-29T10:03:21;6.47;;;2.00;;
15261;SDS011;7733;51.554;13.590;2022-07-29T10:06:03;7.53;;;2.73;;
15261;SDS011;7733;51.554;13.590;2022-07-29T10:08:31;6.97;;;2.10;;
15261;SDS011;7733;51.554;13.590;2022-07-29T10:11:12;3.43;;;2.10;;
15261;SDS011;7733;51.554;13.590;2022-07-29T10:13:40;2.97;;;2.03;;
15261;SDS011;7733;51.554;13.590;2022-07-29T10:16:08;4.20;;;2.07;;
15261;SDS011;7733;51.554;13.590;2022-07-29T10:18:34;5.10;;;2.20;;
15261;SDS011;7733;51.554;13.590;2022-07-29T10:21:02;5.10;;;1.90;;
15261;SDS011;7733;51.554;13.590;2022-07-29T10:23:28;5.27;;;2.00;;
15261;SDS011;7733;51.554;13.590;2022-07-29T10:25:55;4.63;;;1.93;;
15261;SDS011;7733;51.554;13.590;2022-07-29T10:28:21;4.27;;;1.87;;
15261;SDS011;7733;51.554;13.590;2022-07-29T10:30:48;2.23;;;2.03;;
15261;SDS011;7733;51.554;13.590;2022-07-29T10:36:18;3.87;;;2.03;;
15261;SDS011;7733;51.554;13.590;2022-07-29T10:39:25;5.00;;;1.80;;
15261;SDS011;7733;51.554;13.590;2022-07-29T10:44:42;3.40;;;1.90;;
15261;SDS011;7733;51.554;13.590;2022-07-29T10:47:18;3.47;;;1.90;;
15261;SDS011;7733;51.554;13.590;2022-07-29T10:49:59;4.80;;;2.10;;
15261;SDS011;7733;51.554;13.590;2022-07-29T10:55:40;2.57;;;1.90;;
15261;SDS011;7733;51.554;13.590;2022-07-29T10:58:13;2.60;;;1.90;;
15261;SDS011;7733;51.554;13.590;2022-07-29T11:00:42;4.87;;;1.80;;
15261;SDS011;7733;51.554;13.590;2022-07-29T11:03:08;4.00;;;2.00;;
15261;SDS011;7733;51.554;13.590;2022-07-29T11:05:53;2.67;;;1.43;;
15261;SDS011;7733;51.554;13.590;2022-07-29T11:08:21;5.97;;;2.33;;
15261;SDS011;7733;51.554;13.590;2022-07-29T11:10:49;5.27;;;2.07;;
15261;SDS011;7733;51.554;13.590;2022-07-29T11:16:08;3.87;;;1.90;;
15261;SDS011;7733;51.554;13.590;2022-07-29T11:18:34;3.13;;;1.50;;
15261;SDS011;7733;51.554;13.590;2022-07-29T11:20:59;3.23;;;1.87;;
15261;SDS011;7733;51.554;13.590;2022-07-29T11:23:29;3.10;;;1.83;;
15261;SDS011;7733;51.554;13.590;2022-07-29T11:28:55;2.03;;;1.73;;
15261;SDS011;7733;51.554;13.590;2022-07-29T11:34:43;3.93;;;1.80;;
15261;SDS011;7733;51.554;13.590;2022-07-29T11:39:35;2.27;;;1.50;;
15261;SDS011;7733;51.554;13.590;2022-07-29T11:47:46;6.43;;;1.90;;
15261;SDS011;7733;51.554;13.590;2022-07-29T11:50:15;3.13;;;1.90;;
15261;SDS011;7733;51.554;13.590;2022-07-29T11:53:12;9.20;;;1.70;;
15261;SDS011;7733;51.554;13.590;2022-07-29T11:55:39;2.17;;;1.70;;
15261;SDS011;7733;51.554;13.590;2022-07-29T11:58:06;4.57;;;1.87;;
15261;SDS011;7733;51.554;13.590;2022-07-29T12:00:39;1.93;;;1.70;;
15261;SDS011;7733;51.554;13.590;2022-07-29T12:03:07;4.30;;;2.00;;
15261;SDS011;7733;51.554;13.590;2022-07-29T12:05:42;2.27;;;1.67;;
15261;SDS011;7733;51.554;13.590;2022-07-29T12:08:20;1.97;;;1.63;;
15261;SDS011;7733;51.554;13.590;2022-07-29T12:10:48;3.03;;;2.00;;
15261;SDS011;7733;51.554;13.590;2022-07-29T12:13:16;2.77;;;2.07;;
15261;SDS011;7733;51.554;13.590;2022-07-29T12:15:54;2.80;;;1.70;;
15261;SDS011;7733;51.554;13.590;2022-07-29T12:18:22;2.00;;;1.80;;
15261;SDS011;7733;51.554;13.590;2022-07-29T12:20:48;2.60;;;1.47;;
15261;SDS011;7733;51.554;13.590;2022-07-29T12:23:22;2.20;;;2.10;;
15261;SDS011;7733;51.554;13.590;2022-07-29T12:25:47;2.43;;;2.13;;
15261;SDS011;7733;51.554;13.590;2022-07-29T12:28:13;4.03;;;2.10;;
15261;SDS011;7733;51.554;13.590;2022-07-29T12:30:44;3.70;;;2.20;;
15261;SDS011;7733;51.554;13.590;2022-07-29T12:33:26;2.47;;;2.10;;
15261;SDS011;7733;51.554;13.590;2022-07-29T12:35:54;3.30;;;1.77;;
15261;SDS011;7733;51.554;13.590;2022-07-29T12:38:25;2.40;;;2.10;;
15261;SDS011;7733;51.554;13.590;2022-07-29T12:40:51;4.80;;;2.60;;
15261;SDS011;7733;51.554;13.590;2022-07-29T12:43:19;2.27;;;2.07;;
15261;SDS011;7733;51.554;13.590;2022-07-29T12:45:48;3.50;;;1.90;;
15261;SDS011;7733;51.554;13.590;2022-07-29T12:48:17;4.53;;;2.13;;
15261;SDS011;7733;51.554;13.590;2022-07-29T12:51:01;2.60;;;2.40;;
15261;SDS011;7733;51.554;13.590;2022-07-29T12:53:28;2.80;;;2.60;;
15261;SDS011;7733;51.554;13.590;2022-07-29T12:55:55;2.90;;;2.63;;
15261;SDS011;7733;51.554;13.590;2022-07-29T12:58:28;5.07;;;2.50;;
15261;SDS011;7733;51.554;13.590;2022-07-29T13:01:09;5.33;;;2.50;;
15261;SDS011;7733;51.554;13.590;2022-07-29T13:03:45;2.80;;;2.13;;
15261;SDS011;7733;51.554;13.590;2022-07-29T13:06:40;3.37;;;2.57;;
15261;SDS011;7733;51.554;13.590;2022-07-29T13:09:12;2.60;;;2.00;;
15261;SDS011;7733;51.554;13.590;2022-07-29T13:11:44;2.20;;;2.10;;
15261;SDS011;7733;51.554;13.590;2022-07-29T13:14:34;2.60;;;2.27;;
15261;SDS011;7733;51.554;13.590;2022-07-29T13:19:37;7.00;;;2.03;;
15261;SDS011;7733;51.554;13.590;2022-07-29T13:22:30;4.50;;;2.10;;
15261;SDS011;7733;51.554;13.590;2022-07-29T13:24:57;1.90;;;1.80;;
15261;SDS011;7733;51.554;13.590;2022-07-29T13:27:29;2.20;;;2.10;;
15261;SDS011;7733;51.554;13.590;2022-07-29T13:29:59;2.77;;;2.00;;
15261;SDS011;7733;51.554;13.590;2022-07-29T13:32:27;4.60;;;2.10;;
15261;SDS011;7733;51.554;13.590;2022-07-29T13:34:55;2.63;;;1.70;;
15261;SDS011;7733;51.554;13.590;2022-07-29T13:37:22;4.87;;;2.10;;
15261;SDS011;7733;51.554;13.590;2022-07-29T13:39:48;3.63;;;2.30;;
15261;SDS011;7733;51.554;13.590;2022-07-29T13:42:13;3.57;;;2.10;;
15261;SDS011;7733;51.554;13.590;2022-07-29T13:44:39;3.30;;;2.07;;
15261;SDS011;7733;51.554;13.590;2022-07-29T13:47:06;2.53;;;1.87;;
15261;SDS011;7733;51.554;13.590;2022-07-29T13:49:32;2.37;;;1.87;;
15261;SDS011;7733;51.554;13.590;2022-07-29T13:51:59;4.97;;;2.00;;
15261;SDS011;7733;51.554;13.590;2022-07-29T13:54:25;2.53;;;1.80;;
15261;SDS011;7733;51.554;13.590;2022-07-29T13:56:51;2.90;;;1.80;;
15261;SDS011;7733;51.554;13.590;2022-07-29T13:59:16;4.80;;;1.90;;
15261;SDS011;7733;51.554;13.590;2022-07-29T14:01:42;2.57;;;1.73;;
15261;SDS011;7733;51.554;13.590;2022-07-29T14:04:08;2.03;;;1.80;;
15261;SDS011;7733;51.554;13.590;2022-07-29T14:06:35;2.47;;;1.63;;
15261;SDS011;7733;51.554;13.590;2022-07-29T14:09:02;3.40;;;1.87;;
15261;SDS011;7733;51.554;13.590;2022-07-29T14:11:33;1.67;;;1.57;;
15261;SDS011;7733;51.554;13.590;2022-07-29T14:13:59;1.70;;;1.60;;
15261;SDS011;7733;51.554;13.590;2022-07-29T14:16:25;1.90;;;1.80;;
15261;SDS011;7733;51.554;13.590;2022-07-29T14:18:50;3.03;;;1.70;;
15261;SDS011;7733;51.554;13.590;2022-07-29T14:21:16;4.27;;;1.73;;
15261;SDS011;7733;51.554;13.590;2022-07-29T14:23:42;3.07;;;1.70;;
15261;SDS011;7733;51.554;13.590;2022-07-29T14:26:07;2.97;;;2.50;;
15261;SDS011;7733;51.554;13.590;2022-07-29T14:28:33;1.90;;;1.80;;
15261;SDS011;7733;51.554;13.590;2022-07-29T14:30:59;3.53;;;1.80;;
15261;SDS011;7733;51.554;13.590;2022-07-29T14:33:24;2.60;;;1.70;;
15261;SDS011;7733;51.554;13.590;2022-07-29T14:35:50;1.90;;;1.60;;
15261;SDS011;7733;51.554;13.590;2022-07-29T14:38:15;1.80;;;1.70;;
15261;SDS011;7733;51.554;13.590;2022-07-29T14:40:41;2.10;;;1.87;;
15261;SDS011;7733;51.554;13.590;2022-07-29T14:43:07;2.97;;;1.80;;
15261;SDS011;7733;51.554;13.590;2022-07-29T14:45:32;4.10;;;1.53;;
15261;SDS011;7733;51.554;13.590;2022-07-29T14:47:58;4.17;;;1.80;;
15261;SDS011;7733;51.554;13.590;2022-07-29T14:50:24;2.00;;;1.57;;
15261;SDS011;7733;51.554;13.590;2022-07-29T14:52:51;1.60;;;1.47;;
15261;SDS011;7733;51.554;13.590;2022-07-29T14:55:17;1.67;;;1.57;;
15261;SDS011;7733;51.554;13.590;2022-07-29T14:57:42;3.93;;;1.67;;
15261;SDS011;7733;51.554;13.590;2022-07-29T15:00:08;1.80;;;1.50;;
15261;SDS011;7733;51.554;13.590;2022-07-29T15:02:36;3.33;;;2.27;;
15261;SDS011;7733;51.554;13.590;2022-07-29T15:05:02;2.97;;;1.73;;
15261;SDS011;7733;51.554;13.590;2022-07-29T15:07:28;3.57;;;1.80;;
15261;SDS011;7733;51.554;13.590;2022-07-29T15:09:53;2.27;;;1.90;;
15261;SDS011;7733;51.554;13.590;2022-07-29T15:12:19;2.57;;;2.00;;
15261;SDS011;7733;51.554;13.590;2022-07-29T15:14:45;1.97;;;1.70;;
15261;SDS011;7733;51.554;13.590;2022-07-29T15:17:10;2.43;;;1.70;;
15261;SDS011;7733;51.554;13.590;2022-07-29T15:19:36;1.73;;;1.53;;
15261;SDS011;7733;51.554;13.590;2022-07-29T15:22:02;2.00;;;1.80;;
15261;SDS011;7733;51.554;13.590;2022-07-29T15:24:30;2.60;;;1.67;;
15261;SDS011;7733;51.554;13.590;2022-07-29T15:26:55;2.53;;;1.73;;
15261;SDS011;7733;51.554;13.590;2022-07-29T15:29:21;2.07;;;1.83;;
15261;SDS011;7733;51.554;13.590;2022-07-29T15:31:48;1.53;;;1.43;;
15261;SDS011;7733;51.554;13.590;2022-07-29T15:34:14;3.23;;;1.60;;
15261;SDS011;7733;51.554;13.590;2022-07-29T15:36:39;4.43;;;1.70;;
15261;SDS011;7733;51.554;13.590;2022-07-29T15:39:05;3.70;;;1.60;;